New Orleans, LA (70127)

2:34 PM CDT on July 27, 2016 (GMT -0500)
Gentilly Terrace | | Change Station

Elev 15 ft 30.00 °N, 90.05 °W | Updated 11 seconds ago

Partly Cloudy
Partly Cloudy
87.6 °F
Feels Like 99 °F
N
0.0
Wind Variable Wind from SW
Gusts 2.0 mph

Today
High -- | Low -- °F
--% Chance of Precip.
Yesterday
High -- | Low -- °F
Precip. -- in
Pressure 30.04 in
Visibility 10.0 miles
Clouds Few 11000 ft
Heat Index 99 °F
Dew Point 77 °F
Humidity 70%
Rainfall 0.20 in
Snow Depth Not available.
6:16 AM 7:56 PM
Last Quarter, 40% visible
METAR KNEW 271853Z 28005KT 10SM FEW110 28/22 A3006 RMK AO2 SLP172 T02780217
Pressure 30.04 in
Visibility 10.0 miles
Clouds Few 11000 ft
Heat Index 99 °F
Dew Point 77 °F
Humidity 70%
Rainfall 0.20 in
Snow Depth Not available.
6:16 AM 7:56 PM
Last Quarter, 40% visible
METAR KNEW 271853Z 28005KT 10SM FEW110 28/22 A3006 RMK AO2 SLP172 T02780217

10-Day Weather Forecast

Almanac

Astronomy

Jul. 27, 2016 Rise Set
Actual Time
Civil Twilight
Nautical Twilight
Astronomical Twilight
Moon
Length of Visible Light
Length of Day
Tomorrow will be .
, % of the Moon is Illuminated

Today's Extremes

State Highs State Lows

Community

WunderPhotos

Upload Photos

1,927,916 photos uploaded!

WunderBlog® & News

Nearby

Air Quality

  Air Quality AQ Index Pollutant
Not available.

Snow Depth

Station Depth Elevation

Earthquake Activity

City Distance Mag. Time & Date
Minimum magnitude displayed is 2.5.

Coastal Water Temperatures

Place Temperature

Stations

Nearby Weather Stations

Station Location Temp. Windchill Dew Point Humidity Wind Precip. Elev Updated Type
                   

Watches & Warnings

There are currently no watches in effect.